sensor_id;sensor_type;location;lat;lon;timestamp;noise_LAeq;noise_LA_min;noise_LA_max;noise_LA01;noise_LA95
72858;Laerm;62742;52.136;4.500;2022-12-07T00:01:41;45.49;40.43;52.54;;
72858;Laerm;62742;52.136;4.500;2022-12-07T00:04:11;44.51;39.37;51.71;;
72858;Laerm;62742;52.136;4.500;2022-12-07T00:06:43;46.83;39.77;52.25;;
72858;Laerm;62742;52.136;4.500;2022-12-07T00:09:12;47.40;43.72;53.07;;
72858;Laerm;62742;52.136;4.500;2022-12-07T00:11:39;44.94;40.45;52.82;;
72858;Laerm;62742;52.136;4.500;2022-12-07T00:14:07;46.54;41.09;52.43;;
72858;Laerm;62742;52.136;4.500;2022-12-07T00:16:34;44.09;40.20;48.60;;
72858;Laerm;62742;52.136;4.500;2022-12-07T00:19:00;47.13;40.70;53.33;;
72858;Laerm;62742;52.136;4.500;2022-12-07T00:21:30;44.94;41.77;49.51;;
72858;Laerm;62742;52.136;4.500;2022-12-07T00:23:57;46.12;40.80;52.92;;
72858;Laerm;62742;52.136;4.500;2022-12-07T00:26:29;44.17;39.38;52.57;;
72858;Laerm;62742;52.136;4.500;2022-12-07T00:29:00;43.81;39.75;47.83;;
72858;Laerm;62742;52.136;4.500;2022-12-07T00:31:30;47.59;41.49;53.51;;
72858;Laerm;62742;52.136;4.500;2022-12-07T00:33:57;47.30;40.58;52.41;;
72858;Laerm;62742;52.136;4.500;2022-12-07T00:36:25;46.29;39.35;53.20;;
72858;Laerm;62742;52.136;4.500;2022-12-07T00:38:51;46.66;39.91;52.88;;
72858;Laerm;62742;52.136;4.500;2022-12-07T00:41:20;45.16;40.38;53.75;;
72858;Laerm;62742;52.136;4.500;2022-12-07T00:43:48;48.45;41.13;55.07;;
72858;Laerm;62742;52.136;4.500;2022-12-07T00:46:15;49.06;39.65;53.81;;
72858;Laerm;62742;52.136;4.500;2022-12-07T00:48:42;48.46;39.60;53.16;;
72858;Laerm;62742;52.136;4.500;2022-12-07T00:51:14;46.82;39.95;53.10;;
72858;Laerm;62742;52.136;4.500;2022-12-07T00:53:41;47.56;40.25;54.32;;
72858;Laerm;62742;52.136;4.500;2022-12-07T00:56:09;47.20;40.90;54.42;;
72858;Laerm;62742;52.136;4.500;2022-12-07T00:58:35;47.33;40.42;54.76;;
72858;Laerm;62742;52.136;4.500;2022-12-07T01:01:03;46.73;40.01;52.52;;
72858;Laerm;62742;52.136;4.500;2022-12-07T01:03:29;46.74;40.38;52.67;;
72858;Laerm;62742;52.136;4.500;2022-12-07T01:05:57;46.92;40.32;52.23;;
72858;Laerm;62742;52.136;4.500;2022-12-07T01:08:24;46.35;40.38;54.04;;
72858;Laerm;62742;52.136;4.500;2022-12-07T01:11:12;46.38;40.13;51.61;;
72858;Laerm;62742;52.136;4.500;2022-12-07T01:13:39;46.61;42.54;52.63;;
72858;Laerm;62742;52.136;4.500;2022-12-07T01:16:06;46.49;40.39;51.55;;
72858;Laerm;62742;52.136;4.500;2022-12-07T01:18:35;46.68;40.79;55.84;;
72858;Laerm;62742;52.136;4.500;2022-12-07T01:21:14;47.27;43.54;54.56;;
72858;Laerm;62742;52.136;4.500;2022-12-07T01:23:41;47.72;43.73;53.59;;
72858;Laerm;62742;52.136;4.500;2022-12-07T01:26:11;47.20;38.40;56.55;;
72858;Laerm;62742;52.136;4.500;2022-12-07T01:28:38;47.17;43.04;54.60;;
72858;Laerm;62742;52.136;4.500;2022-12-07T01:31:11;47.29;40.21;54.24;;
72858;Laerm;62742;52.136;4.500;2022-12-07T01:33:39;46.80;40.67;53.14;;
72858;Laerm;62742;52.136;4.500;2022-12-07T01:36:29;48.86;40.08;54.61;;
72858;Laerm;62742;52.136;4.500;2022-12-07T01:38:58;46.81;40.76;54.69;;
72858;Laerm;62742;52.136;4.500;2022-12-07T01:41:28;46.24;38.93;51.74;;
72858;Laerm;62742;52.136;4.500;2022-12-07T01:46:33;47.60;41.45;53.55;;
72858;Laerm;62742;52.136;4.500;2022-12-07T01:48:59;48.74;40.28;53.86;;
72858;Laerm;62742;52.136;4.500;2022-12-07T01:51:27;46.55;40.57;51.94;;
72858;Laerm;62742;52.136;4.500;2022-12-07T01:53:55;46.42;42.78;52.16;;
72858;Laerm;62742;52.136;4.500;2022-12-07T01:56:26;46.30;39.94;51.98;;
72858;Laerm;62742;52.136;4.500;2022-12-07T01:58:54;46.74;42.50;54.86;;
72858;Laerm;62742;52.136;4.500;2022-12-07T02:01:22;47.26;40.52;54.52;;
72858;Laerm;62742;52.136;4.500;2022-12-07T02:03:48;46.85;39.43;52.16;;
72858;Laerm;62742;52.136;4.500;2022-12-07T02:06:20;46.26;38.55;52.90;;
72858;Laerm;62742;52.136;4.500;2022-12-07T02:08:47;48.39;43.07;53.28;;
72858;Laerm;62742;52.136;4.500;2022-12-07T02:11:13;46.77;43.07;51.72;;
72858;Laerm;62742;52.136;4.500;2022-12-07T02:13:42;46.81;39.60;52.45;;
72858;Laerm;62742;52.136;4.500;2022-12-07T02:16:39;46.73;38.96;52.79;;
72858;Laerm;62742;52.136;4.500;2022-12-07T02:38:19;44.96;40.94;58.01;;
72858;Laerm;62742;52.136;4.500;2022-12-07T02:41:02;47.96;40.06;54.56;;
72858;Laerm;62742;52.136;4.500;2022-12-07T02:43:35;47.06;40.02;52.88;;
72858;Laerm;62742;52.136;4.500;2022-12-07T02:46:11;44.16;38.46;50.48;;
72858;Laerm;62742;52.136;4.500;2022-12-07T02:48:41;44.98;40.84;49.61;;
72858;Laerm;62742;52.136;4.500;2022-12-07T02:51:31;43.96;39.34;51.76;;
72858;Laerm;62742;52.136;4.500;2022-12-07T02:53:57;44.93;39.97;52.45;;
72858;Laerm;62742;52.136;4.500;2022-12-07T03:04:43;45.15;40.30;57.94;;
72858;Laerm;62742;52.136;4.500;2022-12-07T03:14:09;44.99;40.06;54.64;;
72858;Laerm;62742;52.136;4.500;2022-12-07T03:18:58;47.19;39.48;55.50;;
72858;Laerm;62742;52.136;4.500;2022-12-07T03:21:33;48.44;40.21;55.62;;
72858;Laerm;62742;52.136;4.500;2022-12-07T03:24:06;48.61;40.82;54.23;;
72858;Laerm;62742;52.136;4.500;2022-12-07T03:26:40;47.15;42.24;54.89;;
72858;Laerm;62742;52.136;4.500;2022-12-07T03:29:17;46.98;39.40;53.19;;
72858;Laerm;62742;52.136;4.500;2022-12-07T03:31:51;45.34;40.02;53.67;;
72858;Laerm;62742;52.136;4.500;2022-12-07T03:34:30;45.22;40.73;53.95;;
72858;Laerm;62742;52.136;4.500;2022-12-07T03:37:17;46.84;41.24;54.61;;
72858;Laerm;62742;52.136;4.500;2022-12-07T03:39:58;45.15;40.27;52.69;;
72858;Laerm;62742;52.136;4.500;2022-12-07T03:42:28;45.46;40.75;53.02;;
72858;Laerm;62742;52.136;4.500;2022-12-07T03:44:55;44.39;40.07;50.67;;
72858;Laerm;62742;52.136;4.500;2022-12-07T03:47:31;43.85;40.80;47.51;;
72858;Laerm;62742;52.136;4.500;2022-12-07T03:52:46;46.71;40.26;53.20;;
72858;Laerm;62742;52.136;4.500;2022-12-07T03:55:36;47.03;41.02;52.58;;
72858;Laerm;62742;52.136;4.500;2022-12-07T03:58:10;47.25;40.21;52.50;;
72858;Laerm;62742;52.136;4.500;2022-12-07T04:00:37;47.47;44.01;54.13;;
72858;Laerm;62742;52.136;4.500;2022-12-07T04:03:04;46.52;40.08;53.40;;
72858;Laerm;62742;52.136;4.500;2022-12-07T04:05:30;46.79;42.78;55.92;;
72858;Laerm;62742;52.136;4.500;2022-12-07T04:07:56;47.44;39.76;52.44;;
72858;Laerm;62742;52.136;4.500;2022-12-07T04:10:22;46.31;42.72;51.47;;
72858;Laerm;62742;52.136;4.500;2022-12-07T04:12:49;46.04;39.95;53.73;;
72858;Laerm;62742;52.136;4.500;2022-12-07T04:15:15;46.59;42.90;52.31;;
72858;Laerm;62742;52.136;4.500;2022-12-07T04:17:42;46.30;42.22;50.25;;
72858;Laerm;62742;52.136;4.500;2022-12-07T04:20:09;45.88;42.63;50.52;;
72858;Laerm;62742;52.136;4.500;2022-12-07T04:22:36;45.85;42.13;50.76;;
72858;Laerm;62742;52.136;4.500;2022-12-07T04:25:02;45.46;42.23;49.07;;
72858;Laerm;62742;52.136;4.500;2022-12-07T04:27:28;45.99;42.35;52.00;;
72858;Laerm;62742;52.136;4.500;2022-12-07T04:29:55;46.39;42.73;50.85;;
72858;Laerm;62742;52.136;4.500;2022-12-07T04:32:22;47.86;43.31;53.28;;
72858;Laerm;62742;52.136;4.500;2022-12-07T04:34:49;47.64;42.87;53.82;;
72858;Laerm;62742;52.136;4.500;2022-12-07T04:37:15;46.55;41.95;52.07;;
72858;Laerm;62742;52.136;4.500;2022-12-07T04:39:42;46.54;42.80;51.33;;
72858;Laerm;62742;52.136;4.500;2022-12-07T04:42:11;47.05;42.12;53.01;;
72858;Laerm;62742;52.136;4.500;2022-12-07T04:44:39;46.22;42.74;51.49;;
72858;Laerm;62742;52.136;4.500;2022-12-07T04:47:05;46.09;40.84;51.74;;
72858;Laerm;62742;52.136;4.500;2022-12-07T04:49:31;47.61;41.99;54.03;;
72858;Laerm;62742;52.136;4.500;2022-12-07T04:51:57;46.66;40.88;55.34;;
72858;Laerm;62742;52.136;4.500;2022-12-07T04:54:24;47.74;44.03;53.03;;
72858;Laerm;62742;52.136;4.500;2022-12-07T04:56:50;47.66;40.71;55.08;;
72858;Laerm;62742;52.136;4.500;2022-12-07T04:59:16;48.03;43.76;54.14;;
72858;Laerm;62742;52.136;4.500;2022-12-07T05:01:43;48.05;42.20;53.69;;
72858;Laerm;62742;52.136;4.500;2022-12-07T05:04:10;47.34;42.44;53.97;;
72858;Laerm;62742;52.136;4.500;2022-12-07T05:06:36;46.71;43.21;51.46;;
72858;Laerm;62742;52.136;4.500;2022-12-07T05:09:03;47.40;43.04;52.62;;
72858;Laerm;62742;52.136;4.500;2022-12-07T05:11:29;46.90;43.22;52.17;;
72858;Laerm;62742;52.136;4.500;2022-12-07T05:14:17;47.24;39.78;52.74;;
72858;Laerm;62742;52.136;4.500;2022-12-07T05:16:45;48.43;41.29;54.93;;
72858;Laerm;62742;52.136;4.500;2022-12-07T05:19:12;47.38;43.78;52.93;;
72858;Laerm;62742;52.136;4.500;2022-12-07T05:21:39;48.92;43.86;53.54;;
72858;Laerm;62742;52.136;4.500;2022-12-07T05:24:07;47.67;42.31;52.30;;
72858;Laerm;62742;52.136;4.500;2022-12-07T05:26:34;49.49;43.32;54.41;;
72858;Laerm;62742;52.136;4.500;2022-12-07T05:29:00;46.88;40.77;55.98;;
72858;Laerm;62742;52.136;4.500;2022-12-07T05:31:26;46.73;39.28;52.81;;
72858;Laerm;62742;52.136;4.500;2022-12-07T05:33:53;46.21;40.22;53.59;;
72858;Laerm;62742;52.136;4.500;2022-12-07T05:36:19;45.80;42.11;51.25;;
72858;Laerm;62742;52.136;4.500;2022-12-07T05:38:46;46.18;42.42;51.85;;
72858;Laerm;62742;52.136;4.500;2022-12-07T05:41:16;46.40;42.68;52.05;;
72858;Laerm;62742;52.136;4.500;2022-12-07T05:44:02;46.83;43.60;53.91;;
72858;Laerm;62742;52.136;4.500;2022-12-07T05:46:28;46.60;42.83;54.19;;
72858;Laerm;62742;52.136;4.500;2022-12-07T05:48:54;45.90;39.85;51.60;;
72858;Laerm;62742;52.136;4.500;2022-12-07T05:51:21;46.31;40.82;51.14;;
72858;Laerm;62742;52.136;4.500;2022-12-07T05:53:47;47.03;41.95;54.19;;
72858;Laerm;62742;52.136;4.500;2022-12-07T05:56:13;46.91;40.85;52.26;;
72858;Laerm;62742;52.136;4.500;2022-12-07T05:58:40;46.85;40.85;52.92;;
72858;Laerm;62742;52.136;4.500;2022-12-07T06:01:24;46.31;40.17;52.20;;
72858;Laerm;62742;52.136;4.500;2022-12-07T06:03:51;46.17;42.82;50.33;;
72858;Laerm;62742;52.136;4.500;2022-12-07T06:06:17;46.56;43.15;52.06;;
72858;Laerm;62742;52.136;4.500;2022-12-07T06:08:43;46.43;42.59;51.47;;
72858;Laerm;62742;52.136;4.500;2022-12-07T06:11:10;48.59;43.67;53.12;;
72858;Laerm;62742;52.136;4.500;2022-12-07T06:13:54;48.30;41.43;53.19;;
72858;Laerm;62742;52.136;4.500;2022-12-07T06:16:21;47.05;41.36;53.49;;
72858;Laerm;62742;52.136;4.500;2022-12-07T06:18:47;47.11;43.14;55.61;;
72858;Laerm;62742;52.136;4.500;2022-12-07T06:21:13;46.71;42.38;53.83;;
72858;Laerm;62742;52.136;4.500;2022-12-07T06:23:40;46.32;42.88;51.14;;
72858;Laerm;62742;52.136;4.500;2022-12-07T06:26:06;46.73;40.19;53.20;;
72858;Laerm;62742;52.136;4.500;2022-12-07T06:28:33;47.05;43.06;51.76;;
72858;Laerm;62742;52.136;4.500;2022-12-07T06:31:02;49.62;40.18;54.43;;
72858;Laerm;62742;52.136;4.500;2022-12-07T06:33:29;45.66;40.55;53.95;;
72858;Laerm;62742;52.136;4.500;2022-12-07T06:35:55;47.86;40.38;54.73;;
72858;Laerm;62742;52.136;4.500;2022-12-07T06:38:22;45.95;41.09;52.84;;
72858;Laerm;62742;52.136;4.500;2022-12-07T06:40:48;47.09;40.03;59.23;;
72858;Laerm;62742;52.136;4.500;2022-12-07T06:43:14;45.72;39.57;54.16;;
72858;Laerm;62742;52.136;4.500;2022-12-07T06:45:41;45.17;40.72;56.31;;
72858;Laerm;62742;52.136;4.500;2022-12-07T06:48:07;45.58;39.18;52.68;;
72858;Laerm;62742;52.136;4.500;2022-12-07T06:50:33;44.70;39.01;53.57;;
72858;Laerm;62742;52.136;4.500;2022-12-07T06:53:00;45.99;39.94;53.76;;
72858;Laerm;62742;52.136;4.500;2022-12-07T06:55:26;46.43;38.39;52.83;;
72858;Laerm;62742;52.136;4.500;2022-12-07T06:57:52;45.23;38.85;52.40;;
72858;Laerm;62742;52.136;4.500;2022-12-07T07:00:19;46.65;39.82;53.29;;
72858;Laerm;62742;52.136;4.500;2022-12-07T07:02:45;45.90;40.68;55.02;;
72858;Laerm;62742;52.136;4.500;2022-12-07T07:05:11;43.86;38.37;54.67;;
72858;Laerm;62742;52.136;4.500;2022-12-07T07:07:38;44.60;40.54;52.92;;
72858;Laerm;62742;52.136;4.500;2022-12-07T07:10:04;45.78;39.77;51.98;;
72858;Laerm;62742;52.136;4.500;2022-12-07T07:12:31;45.91;38.81;52.60;;
72858;Laerm;62742;52.136;4.500;2022-12-07T07:14:57;47.55;39.94;53.70;;
72858;Laerm;62742;52.136;4.500;2022-12-07T07:17:24;46.65;40.12;51.72;;
72858;Laerm;62742;52.136;4.500;2022-12-07T07:19:50;46.24;39.15;52.34;;
72858;Laerm;62742;52.136;4.500;2022-12-07T07:22:16;47.34;43.57;52.18;;
72858;Laerm;62742;52.136;4.500;2022-12-07T07:24:42;46.57;39.32;52.11;;
72858;Laerm;62742;52.136;4.500;2022-12-07T07:27:09;47.42;39.53;52.87;;
72858;Laerm;62742;52.136;4.500;2022-12-07T07:29:35;48.00;39.86;55.26;;
72858;Laerm;62742;52.136;4.500;2022-12-07T07:32:01;47.53;40.23;54.89;;
72858;Laerm;62742;52.136;4.500;2022-12-07T07:34:27;45.74;40.30;52.10;;
72858;Laerm;62742;52.136;4.500;2022-12-07T07:36:54;44.55;39.12;50.86;;
72858;Laerm;62742;52.136;4.500;2022-12-07T07:39:20;46.53;39.58;52.38;;
72858;Laerm;62742;52.136;4.500;2022-12-07T07:41:46;44.42;39.61;52.26;;
72858;Laerm;62742;52.136;4.500;2022-12-07T07:44:13;47.48;39.27;52.64;;
72858;Laerm;62742;52.136;4.500;2022-12-07T07:46:39;47.24;39.93;53.67;;
72858;Laerm;62742;52.136;4.500;2022-12-07T07:49:05;45.81;40.00;53.66;;
72858;Laerm;62742;52.136;4.500;2022-12-07T07:51:31;45.54;39.85;53.09;;
72858;Laerm;62742;52.136;4.500;2022-12-07T07:53:58;47.23;39.63;52.50;;
72858;Laerm;62742;52.136;4.500;2022-12-07T07:56:24;45.18;39.54;51.67;;
72858;Laerm;62742;52.136;4.500;2022-12-07T07:58:54;46.04;39.94;57.47;;
72858;Laerm;62742;52.136;4.500;2022-12-07T08:01:20;47.05;41.68;52.24;;
72858;Laerm;62742;52.136;4.500;2022-12-07T08:03:47;47.32;39.54;53.03;;
72858;Laerm;62742;52.136;4.500;2022-12-07T08:06:13;46.35;39.69;52.32;;
72858;Laerm;62742;52.136;4.500;2022-12-07T08:08:39;46.10;39.16;52.00;;
72858;Laerm;62742;52.136;4.500;2022-12-07T08:11:07;45.44;40.50;51.95;;
72858;Laerm;62742;52.136;4.500;2022-12-07T08:13:33;46.48;40.10;51.63;;
72858;Laerm;62742;52.136;4.500;2022-12-07T08:16:04;46.80;43.58;52.24;;
72858;Laerm;62742;52.136;4.500;2022-12-07T08:18:35;48.28;43.16;53.12;;
72858;Laerm;62742;52.136;4.500;2022-12-07T08:21:02;47.20;42.58;53.19;;
72858;Laerm;62742;52.136;4.500;2022-12-07T08:23:30;46.43;42.84;51.21;;
72858;Laerm;62742;52.136;4.500;2022-12-07T08:26:01;46.37;39.57;51.52;;
72858;Laerm;62742;52.136;4.500;2022-12-07T08:28:28;46.82;41.44;52.68;;
72858;Laerm;62742;52.136;4.500;2022-12-07T08:31:05;46.65;38.71;52.56;;
72858;Laerm;62742;52.136;4.500;2022-12-07T08:33:33;45.99;40.33;51.96;;
72858;Laerm;62742;52.136;4.500;2022-12-07T08:36:01;46.86;39.12;51.72;;
72858;Laerm;62742;52.136;4.500;2022-12-07T08:38:28;47.08;40.62;52.49;;
72858;Laerm;62742;52.136;4.500;2022-12-07T08:40:56;47.43;43.18;53.57;;
72858;Laerm;62742;52.136;4.500;2022-12-07T08:43:23;46.50;40.49;54.60;;
72858;Laerm;62742;52.136;4.500;2022-12-07T08:46:09;45.51;40.41;51.77;;
72858;Laerm;62742;52.136;4.500;2022-12-07T08:48:41;46.33;39.35;52.72;;
72858;Laerm;62742;52.136;4.500;2022-12-07T08:51:09;46.05;39.36;52.56;;
72858;Laerm;62742;52.136;4.500;2022-12-07T08:53:37;44.58;39.73;52.75;;
72858;Laerm;62742;52.136;4.500;2022-12-07T08:56:05;47.40;39.29;56.03;;
72858;Laerm;62742;52.136;4.500;2022-12-07T08:58:34;48.01;44.00;53.21;;
72858;Laerm;62742;52.136;4.500;2022-12-07T09:01:02;45.97;39.42;53.55;;
72858;Laerm;62742;52.136;4.500;2022-12-07T09:03:29;44.71;39.14;56.11;;
72858;Laerm;62742;52.136;4.500;2022-12-07T09:05:55;45.68;39.05;52.54;;
72858;Laerm;62742;52.136;4.500;2022-12-07T09:08:26;45.42;39.50;53.96;;
72858;Laerm;62742;52.136;4.500;2022-12-07T09:10:53;47.64;40.06;54.51;;
72858;Laerm;62742;52.136;4.500;2022-12-07T09:13:19;46.36;40.51;55.79;;
72858;Laerm;62742;52.136;4.500;2022-12-07T09:15:45;46.92;40.30;52.70;;
72858;Laerm;62742;52.136;4.500;2022-12-07T09:18:12;44.73;39.63;54.85;;
72858;Laerm;62742;52.136;4.500;2022-12-07T09:20:38;47.73;39.78;55.50;;
72858;Laerm;62742;52.136;4.500;2022-12-07T09:23:06;46.11;39.35;53.71;;
72858;Laerm;62742;52.136;4.500;2022-12-07T09:25:33;46.39;39.89;54.47;;
72858;Laerm;62742;52.136;4.500;2022-12-07T09:28:00;46.77;39.31;54.02;;
72858;Laerm;62742;52.136;4.500;2022-12-07T09:30:27;47.34;40.64;52.79;;
72858;Laerm;62742;52.136;4.500;2022-12-07T09:32:55;46.01;40.26;54.22;;
72858;Laerm;62742;52.136;4.500;2022-12-07T09:35:23;46.42;40.12;57.96;;
72858;Laerm;62742;52.136;4.500;2022-12-07T09:37:50;44.56;40.14;51.23;;
72858;Laerm;62742;52.136;4.500;2022-12-07T09:40:18;46.86;39.93;56.22;;
72858;Laerm;62742;52.136;4.500;2022-12-07T09:42:47;47.22;38.96;53.26;;
72858;Laerm;62742;52.136;4.500;2022-12-07T09:45:24;46.81;39.24;53.33;;
72858;Laerm;62742;52.136;4.500;2022-12-07T09:47:52;47.55;39.95;53.02;;
72858;Laerm;62742;52.136;4.500;2022-12-07T09:50:26;45.43;39.26;56.40;;
72858;Laerm;62742;52.136;4.500;2022-12-07T09:52:55;45.99;40.64;53.00;;
72858;Laerm;62742;52.136;4.500;2022-12-07T09:55:29;46.25;40.05;52.09;;
72858;Laerm;62742;52.136;4.500;2022-12-07T09:57:57;46.26;40.65;53.06;;
72858;Laerm;62742;52.136;4.500;2022-12-07T10:00:24;47.63;38.68;54.94;;
72858;Laerm;62742;52.136;4.500;2022-12-07T10:03:02;46.74;39.47;52.93;;
72858;Laerm;62742;52.136;4.500;2022-12-07T10:05:48;46.59;39.57;55.23;;
72858;Laerm;62742;52.136;4.500;2022-12-07T10:08:16;46.56;42.60;51.54;;
72858;Laerm;62742;52.136;4.500;2022-12-07T10:10:45;46.55;42.51;52.13;;
72858;Laerm;62742;52.136;4.500;2022-12-07T10:13:15;46.36;42.59;51.85;;
72858;Laerm;62742;52.136;4.500;2022-12-07T10:15:56;46.32;42.32;52.49;;
72858;Laerm;62742;52.136;4.500;2022-12-07T10:18:34;46.76;41.60;52.33;;
72858;Laerm;62742;52.136;4.500;2022-12-07T10:21:13;46.59;43.01;51.88;;
72858;Laerm;62742;52.136;4.500;2022-12-07T10:23:42;46.32;42.72;53.14;;
72858;Laerm;62742;52.136;4.500;2022-12-07T10:28:47;45.84;40.96;50.60;;
72858;Laerm;62742;52.136;4.500;2022-12-07T10:31:20;46.28;43.20;51.12;;
72858;Laerm;62742;52.136;4.500;2022-12-07T10:34:00;47.10;40.84;54.05;;
72858;Laerm;62742;52.136;4.500;2022-12-07T10:39:14;47.05;43.56;51.23;;
72858;Laerm;62742;52.136;4.500;2022-12-07T10:44:25;47.27;42.43;53.00;;
72858;Laerm;62742;52.136;4.500;2022-12-07T10:50:02;47.75;43.07;56.72;;
72858;Laerm;62742;52.136;4.500;2022-12-07T10:58:43;46.05;41.87;51.36;;
72858;Laerm;62742;52.136;4.500;2022-12-07T11:04:26;46.90;43.04;52.07;;
72858;Laerm;62742;52.136;4.500;2022-12-07T11:07:07;46.77;43.07;51.18;;
72858;Laerm;62742;52.136;4.500;2022-12-07T11:10:15;46.20;42.92;50.73;;
72858;Laerm;62742;52.136;4.500;2022-12-07T11:16:02;47.34;43.03;50.91;;
72858;Laerm;62742;52.136;4.500;2022-12-07T11:21:57;45.37;41.94;49.36;;
72858;Laerm;62742;52.136;4.500;2022-12-07T11:24:31;45.42;42.50;49.19;;
72858;Laerm;62742;52.136;4.500;2022-12-07T11:36:15;45.44;41.47;51.53;;
72858;Laerm;62742;52.136;4.500;2022-12-07T11:38:49;45.14;42.18;52.94;;
72858;Laerm;62742;52.136;4.500;2022-12-07T11:41:24;45.76;42.35;49.75;;
72858;Laerm;62742;52.136;4.500;2022-12-07T11:44:06;48.87;43.65;53.80;;
72858;Laerm;62742;52.136;4.500;2022-12-07T11:46:49;49.90;44.01;54.54;;
72858;Laerm;62742;52.136;4.500;2022-12-07T11:54:53;50.08;43.97;55.38;;
72858;Laerm;62742;52.136;4.500;2022-12-07T11:57:31;49.55;43.58;54.61;;
72858;Laerm;62742;52.136;4.500;2022-12-07T12:00:05;50.45;43.75;56.02;;
72858;Laerm;62742;52.136;4.500;2022-12-07T12:03:09;50.29;44.34;56.13;;
72858;Laerm;62742;52.136;4.500;2022-12-07T12:05:36;52.37;45.34;56.09;;
72858;Laerm;62742;52.136;4.500;2022-12-07T12:13:43;49.48;46.61;56.60;;
72858;Laerm;62742;52.136;4.500;2022-12-07T12:21:38;48.87;45.65;54.13;;
72858;Laerm;62742;52.136;4.500;2022-12-07T12:24:18;50.22;46.16;56.96;;
72858;Laerm;62742;52.136;4.500;2022-12-07T12:26:52;48.68;45.40;53.04;;
72858;Laerm;62742;52.136;4.500;2022-12-07T12:29:35;48.90;45.83;56.44;;
72858;Laerm;62742;52.136;4.500;2022-12-07T12:32:18;48.59;45.70;53.58;;
72858;Laerm;62742;52.136;4.500;2022-12-07T12:42:52;49.04;45.43;56.70;;
72858;Laerm;62742;52.136;4.500;2022-12-07T12:45:20;48.30;45.13;52.05;;
72858;Laerm;62742;52.136;4.500;2022-12-07T12:47:57;50.98;44.28;56.31;;
72858;Laerm;62742;52.136;4.500;2022-12-07T12:50:27;49.22;43.39;55.72;;
72858;Laerm;62742;52.136;4.500;2022-12-07T12:53:21;48.93;43.02;55.96;;
72858;Laerm;62742;52.136;4.500;2022-12-07T13:01:29;47.07;43.08;51.46;;
72858;Laerm;62742;52.136;4.500;2022-12-07T13:03:35;46.33;41.99;51.22;;
72858;Laerm;62742;52.136;4.500;2022-12-07T13:06:32;46.67;42.51;51.00;;
72858;Laerm;62742;52.136;4.500;2022-12-07T13:09:01;47.17;42.40;51.53;;
72858;Laerm;62742;52.136;4.500;2022-12-07T13:11:39;47.75;43.18;52.53;;
72858;Laerm;62742;52.136;4.500;2022-12-07T13:14:39;46.91;42.26;50.83;;
72858;Laerm;62742;52.136;4.500;2022-12-07T13:20:04;47.15;42.20;52.43;;
72858;Laerm;62742;52.136;4.500;2022-12-07T13:25:09;46.29;42.58;49.92;;
72858;Laerm;62742;52.136;4.500;2022-12-07T13:27:41;45.95;42.48;52.48;;
72858;Laerm;62742;52.136;4.500;2022-12-07T13:30:17;46.20;42.40;53.42;;
72858;Laerm;62742;52.136;4.500;2022-12-07T13:32:51;45.89;41.88;54.16;;
72858;Laerm;62742;52.136;4.500;2022-12-07T13:35:35;45.68;41.97;48.75;;
72858;Laerm;62742;52.136;4.500;2022-12-07T13:38:24;46.52;42.64;49.77;;
72858;Laerm;62742;52.136;4.500;2022-12-07T13:43:52;46.13;42.58;50.41;;
72858;Laerm;62742;52.136;4.500;2022-12-07T13:46:26;46.40;42.50;53.37;;
72858;Laerm;62742;52.136;4.500;2022-12-07T13:48:57;47.14;42.69;51.85;;
72858;Laerm;62742;52.136;4.500;2022-12-07T13:51:27;48.03;43.68;51.45;;
72858;Laerm;62742;52.136;4.500;2022-12-07T13:54:00;48.24;43.77;51.72;;
72858;Laerm;62742;52.136;4.500;2022-12-07T13:56:32;48.25;43.91;52.54;;
72858;Laerm;62742;52.136;4.500;2022-12-07T13:58:59;48.54;43.70;52.52;;
72858;Laerm;62742;52.136;4.500;2022-12-07T14:01:26;48.28;43.44;51.68;;
72858;Laerm;62742;52.136;4.500;2022-12-07T14:03:53;47.56;43.14;51.40;;
72858;Laerm;62742;52.136;4.500;2022-12-07T14:06:23;46.59;42.18;50.08;;
72858;Laerm;62742;52.136;4.500;2022-12-07T14:09:29;46.71;42.38;50.42;;
72858;Laerm;62742;52.136;4.500;2022-12-07T14:11:57;46.75;41.90;55.95;;
72858;Laerm;62742;52.136;4.500;2022-12-07T14:14:29;46.38;42.46;53.09;;
72858;Laerm;62742;52.136;4.500;2022-12-07T14:17:02;46.09;42.14;49.04;;
72858;Laerm;62742;52.136;4.500;2022-12-07T14:19:53;46.26;42.32;49.93;;
72858;Laerm;62742;52.136;4.500;2022-12-07T14:22:27;45.80;42.47;49.06;;
72858;Laerm;62742;52.136;4.500;2022-12-07T14:27:46;45.13;42.09;51.38;;
72858;Laerm;62742;52.136;4.500;2022-12-07T14:30:17;45.27;41.77;48.24;;
72858;Laerm;62742;52.136;4.500;2022-12-07T14:32:44;45.43;42.26;52.33;;
72858;Laerm;62742;52.136;4.500;2022-12-07T14:35:16;45.35;42.06;52.28;;
72858;Laerm;62742;52.136;4.500;2022-12-07T14:37:46;45.19;42.37;48.52;;
72858;Laerm;62742;52.136;4.500;2022-12-07T14:40:21;45.20;41.77;50.30;;
72858;Laerm;62742;52.136;4.500;2022-12-07T14:42:51;45.34;41.64;49.03;;
72858;Laerm;62742;52.136;4.500;2022-12-07T14:45:21;45.83;41.97;52.61;;
72858;Laerm;62742;52.136;4.500;2022-12-07T14:47:48;46.04;42.50;54.20;;
72858;Laerm;62742;52.136;4.500;2022-12-07T14:50:18;45.68;42.10;49.06;;
72858;Laerm;62742;52.136;4.500;2022-12-07T14:52:49;45.90;42.28;50.12;;
72858;Laerm;62742;52.136;4.500;2022-12-07T14:55:24;45.93;41.55;49.49;;
72858;Laerm;62742;52.136;4.500;2022-12-07T14:57:52;46.40;42.91;50.39;;
72858;Laerm;62742;52.136;4.500;2022-12-07T15:00:19;46.09;42.55;52.85;;
72858;Laerm;62742;52.136;4.500;2022-12-07T15:02:47;45.84;42.33;49.54;;
72858;Laerm;62742;52.136;4.500;2022-12-07T15:05:14;48.14;43.10;53.82;;
72858;Laerm;62742;52.136;4.500;2022-12-07T15:07:41;48.58;42.77;51.94;;
72858;Laerm;62742;52.136;4.500;2022-12-07T15:12:42;48.79;44.24;52.26;;
72858;Laerm;62742;52.136;4.500;2022-12-07T15:15:09;48.60;43.25;54.39;;
72858;Laerm;62742;52.136;4.500;2022-12-07T15:17:35;48.79;43.64;51.98;;
72858;Laerm;62742;52.136;4.500;2022-12-07T15:20:02;49.18;44.27;53.92;;
72858;Laerm;62742;52.136;4.500;2022-12-07T15:22:29;48.33;44.26;51.29;;
72858;Laerm;62742;52.136;4.500;2022-12-07T15:24:57;49.01;43.37;52.35;;
72858;Laerm;62742;52.136;4.500;2022-12-07T15:27:24;48.69;43.91;52.31;;
72858;Laerm;62742;52.136;4.500;2022-12-07T15:29:50;49.46;44.56;53.23;;
72858;Laerm;62742;52.136;4.500;2022-12-07T15:32:16;47.92;42.26;54.75;;
72858;Laerm;62742;52.136;4.500;2022-12-07T15:34:43;46.97;42.69;53.85;;
72858;Laerm;62742;52.136;4.500;2022-12-07T15:37:09;46.45;43.18;50.26;;
72858;Laerm;62742;52.136;4.500;2022-12-07T15:39:36;46.48;41.86;50.68;;
72858;Laerm;62742;52.136;4.500;2022-12-07T15:42:03;46.44;42.18;50.93;;
72858;Laerm;62742;52.136;4.500;2022-12-07T15:44:29;47.57;42.41;50.96;;
72858;Laerm;62742;52.136;4.500;2022-12-07T15:47:14;47.38;43.09;53.03;;
72858;Laerm;62742;52.136;4.500;2022-12-07T15:49:40;47.61;43.17;51.93;;
72858;Laerm;62742;52.136;4.500;2022-12-07T15:52:07;46.82;42.67;51.31;;
72858;Laerm;62742;52.136;4.500;2022-12-07T15:54:33;46.22;41.88;52.42;;
72858;Laerm;62742;52.136;4.500;2022-12-07T15:56:59;45.91;42.22;49.67;;
72858;Laerm;62742;52.136;4.500;2022-12-07T15:59:27;45.90;42.25;49.71;;
72858;Laerm;62742;52.136;4.500;2022-12-07T16:01:54;45.88;42.59;50.24;;
72858;Laerm;62742;52.136;4.500;2022-12-07T16:04:20;46.02;42.88;49.44;;